Time;durP1;ratioP1;P1;durP2;ratioP2;P2;SDS_P1;SDS_P2;PMS_P1;PMS_P2;Temp;Humidity;BMP_temperature;BMP_pressure;BME280_temperature;BME280_humidity;BME280_pressure;Samples;Min_cycle;Max_cycle;Signal;HPM_P1;HPM_P2
2023/05/29 00:00:40;;;;;;;;;;;;;;;-144.99;82.71;52256.50;5045548;28;19939;-70
2023/05/29 00:03:06;;;;;;;;;;;;;;;-144.99;82.94;52278.91;5043780;28;19935;-70
2023/05/29 00:05:33;;;;;;;;;;;;;;;-144.99;82.71;52264.66;5049090;28;20427;-72
2023/05/29 00:08:00;;;;;;;;;;;;;;;-144.99;83.02;52297.25;5051391;28;20084;-69
2023/05/29 00:10:27;;;;;;;;;;;;;;;-144.99;83.10;52272.81;5049237;28;19925;-70
2023/05/29 00:12:55;;;;;;;;;;;;;;;-144.99;82.93;52260.56;5047055;28;20392;-70
2023/05/29 00:15:22;;;;;;;;;;;;;;;-144.99;83.16;52207.59;5046389;28;20455;-70
2023/05/29 00:17:51;;;;;;;;;;;;;;;-144.99;83.23;52272.81;5045490;28;19959;-76
2023/05/29 00:20:18;;;;;;;;;;;;;;;-144.99;83.22;52293.19;5049604;28;19931;-70
2023/05/29 00:22:44;;;;;;;;;;;;;;;-144.99;83.36;52278.91;5045452;28;19931;-70
2023/05/29 00:25:11;;;;;;;;;;;;;;;-144.99;83.68;52278.91;5045135;28;19931;-71
2023/05/29 00:27:38;;;;;;;;;;;;;;;-144.99;83.47;52268.72;5068019;28;19925;-70
2023/05/29 00:30:05;;;;;;;;;;;;;;;-144.99;83.69;52272.81;5060997;28;19986;-69
2023/05/29 00:32:32;;;;;;;;;;;;;;;-144.99;83.71;52240.19;5059298;28;19933;-71
2023/05/29 00:35:00;;;;;;;;;;;;;;;-144.99;83.82;52252.44;5062265;28;19974;-71
2023/05/29 00:37:28;;;;;;;;;;;;;;;-144.99;83.74;52280.97;5059673;28;20051;-70
2023/05/29 00:39:54;;;;;;;;;;;;;;;-144.99;83.46;52236.13;5056504;28;19933;-69
2023/05/29 00:42:21;;;;;;;;;;;;;;;-144.99;83.61;52276.88;5058468;28;19968;-71
2023/05/29 00:44:48;;;;;;;;;;;;;;;-144.99;83.31;52268.72;5057256;28;19924;-70
2023/05/29 00:47:15;;;;;;;;;;;;;;;-144.99;83.45;52248.34;5059939;28;19932;-71
2023/05/29 00:49:42;;;;;;;;;;;;;;;-144.99;83.89;52285.03;5064771;28;19925;-72
2023/05/29 00:52:11;;;;;;;;;;;;;;;-144.99;83.87;52242.22;5070037;28;19936;-70
2023/05/29 00:54:38;;;;;;;;;;;;;;;-144.99;83.89;52248.34;5050463;28;20023;-70
2023/05/29 00:57:05;;;;;;;;;;;;;;;-144.99;84.07;52272.81;5048778;28;19931;-70
2023/05/29 00:59:33;;;;;;;;;;;;;;;-144.99;84.31;52285.03;5046390;28;20091;-70
2023/05/29 01:02:02;;;;;;;;;;;;;;;-144.99;84.33;52280.97;5044298;28;19935;-71
2023/05/29 01:04:28;;;;;;;;;;;;;;;-144.99;84.40;52250.38;5043155;28;20015;-70
2023/05/29 01:06:56;;;;;;;;;;;;;;;-144.99;84.43;52289.13;5050393;28;19929;-71
2023/05/29 01:09:24;;;;;;;;;;;;;;;-144.99;84.49;52305.41;5045531;28;20310;-71
2023/05/29 01:11:55;;;;;;;;;;;;;;;-144.99;84.61;52244.28;5050095;28;20304;-71
2023/05/29 01:14:25;;;;;;;;;;;;;;;-144.99;84.77;52291.16;5046143;28;20309;-70
2023/05/29 01:16:56;;;;;;;;;;;;;;;-144.99;84.24;52268.72;5045680;28;19970;-71
2023/05/29 01:19:32;;;;;;;;;;;;;;;-144.99;84.29;52248.34;5051181;28;19967;-70
2023/05/29 01:22:04;;;;;;;;;;;;;;;-144.99;84.43;52264.66;5051318;28;19928;-73
2023/05/29 01:24:38;;;;;;;;;;;;;;;-144.99;84.40;52280.97;5051244;28;20308;-72
2023/05/29 01:27:08;;;;;;;;;;;;;;;-144.99;84.16;52252.44;5051459;28;19937;-72
2023/05/29 01:29:35;;;;;;;;;;;;;;;-144.99;84.29;52270.78;5049761;28;20034;-71
2023/05/29 01:32:02;;;;;;;;;;;;;;;-144.99;84.34;52295.22;5051651;28;19951;-71
2023/05/29 01:34:29;;;;;;;;;;;;;;;-144.99;84.58;52254.47;5040708;28;20117;-71
2023/05/29 01:36:56;;;;;;;;;;;;;;;-144.99;84.52;52268.72;5045452;28;20378;-71
2023/05/29 01:39:24;;;;;;;;;;;;;;;-144.99;85.15;52260.56;5043424;28;19929;-71
2023/05/29 01:41:51;;;;;;;;;;;;;;;-144.99;84.69;52256.50;5042577;28;19928;-71
2023/05/29 01:44:19;;;;;;;;;;;;;;;-144.99;85.26;52258.53;5042523;28;20313;-71
2023/05/29 01:46:46;;;;;;;;;;;;;;;-144.99;85.28;52258.53;5043214;28;19931;-72
2023/05/29 01:49:13;;;;;;;;;;;;;;;-144.99;85.36;52262.63;5044124;28;20297;-73
2023/05/29 01:51:41;;;;;;;;;;;;;;;-144.99;85.35;52252.44;5044600;28;19925;-72
2023/05/29 01:54:08;;;;;;;;;;;;;;;-144.99;85.36;52313.56;5041695;28;19935;-72
2023/05/29 01:56:34;;;;;;;;;;;;;;;-144.99;85.49;52260.56;5043573;28;19933;-72
2023/05/29 01:59:02;;;;;;;;;;;;;;;-144.99;85.58;52272.81;5042518;28;19939;-72
2023/05/29 02:01:32;;;;;;;;;;;;;;;-144.99;85.43;52305.41;5044681;28;19935;-72
2023/05/29 02:03:58;;;;;;;;;;;;;;;-144.99;85.66;52285.03;5042754;28;19928;-72
2023/05/29 02:06:25;;;;;;;;;;;;;;;-144.99;86.00;52305.41;5047508;28;20055;-71
2023/05/29 02:08:51;;;;;;;;;;;;;;;-144.99;85.78;52280.97;5059200;28;20446;-71
2023/05/29 02:11:18;;;;;;;;;;;;;;;-144.99;86.20;52264.66;5055303;28;20308;-71
2023/05/29 02:13:45;;;;;;;;;;;;;;;-144.99;86.27;52244.28;5046887;28;19929;-71
2023/05/29 02:16:12;;;;;;;;;;;;;;;-144.99;86.02;52309.50;5044814;28;19924;-69
2023/05/29 02:18:41;;;;;;;;;;;;;;;-144.99;86.01;52295.22;5041988;28;20472;-70
2023/05/29 02:21:08;;;;;;;;;;;;;;;-144.99;86.08;52248.34;5042024;28;19929;-69
2023/05/29 02:23:35;;;;;;;;;;;;;;;-144.99;85.91;52240.19;5041022;28;19931;-72
2023/05/29 02:26:01;;;;;;;;;;;;;;;-144.99;86.26;52305.41;5044400;28;20467;-73
2023/05/29 02:28:28;;;;;;;;;;;;;;;-144.99;85.99;52252.44;5044223;28;19935;-71
2023/05/29 02:30:55;;;;;;;;;;;;;;;-144.99;85.98;52309.50;5041965;28;19936;-68
2023/05/29 02:33:21;;;;;;;;;;;;;;;-144.99;86.00;52260.56;5042278;28;19930;-70
2023/05/29 02:35:50;;;;;;;;;;;;;;;-144.99;86.12;52260.56;5042260;28;20386;-70
2023/05/29 02:38:16;;;;;;;;;;;;;;;-144.99;86.15;52280.97;5045590;28;20003;-71
2023/05/29 02:40:43;;;;;;;;;;;;;;;-144.99;86.30;52258.53;5044879;28;20444;-70
2023/05/29 02:43:10;;;;;;;;;;;;;;;-144.99;86.30;52248.34;5042562;28;19925;-71
2023/05/29 02:45:37;;;;;;;;;;;;;;;-144.99;86.39;52219.81;5045984;28;19925;-71
2023/05/29 02:48:03;;;;;;;;;;;;;;;-144.99;86.32;52280.97;5049400;28;19929;-71
2023/05/29 02:50:30;;;;;;;;;;;;;;;-144.99;86.29;52276.88;5057133;28;19929;-70
2023/05/29 02:52:58;;;;;;;;;;;;;;;-144.99;86.32;52260.56;5056153;28;20000;-70
2023/05/29 02:55:25;;;;;;;;;;;;;;;-144.99;86.53;52262.63;5048059;28;19948;-70
2023/05/29 02:57:54;;;;;;;;;;;;;;;-144.99;86.67;52248.34;5055146;28;19940;-70
2023/05/29 03:00:21;;;;;;;;;;;;;;;-144.99;86.72;52278.91;5049224;28;19994;-69
2023/05/29 03:02:48;;;;;;;;;;;;;;;-144.99;86.84;52272.81;5049787;28;20381;-69
2023/05/29 03:05:16;;;;;;;;;;;;;;;-144.99;86.81;52260.56;5048849;28;19924;-69
2023/05/29 03:07:42;;;;;;;;;;;;;;;-144.99;87.05;52256.50;5049598;28;20417;-70
2023/05/29 03:10:11;;;;;;;;;;;;;;;-144.99;87.00;52272.81;5059904;28;19925;-72
2023/05/29 03:12:39;;;;;;;;;;;;;;;-144.99;86.95;52258.53;5058221;28;19947;-69
2023/05/29 03:15:06;;;;;;;;;;;;;;;-144.99;86.88;52244.28;5056342;28;19928;-66
2023/05/29 03:17:33;;;;;;;;;;;;;;;-144.99;87.23;52280.97;5055138;28;19956;-70
2023/05/29 03:19:59;;;;;;;;;;;;;;;-144.99;87.26;52293.19;5056936;28;19933;-66
2023/05/29 03:22:26;;;;;;;;;;;;;;;-144.99;87.19;52289.13;5051949;28;19928;-67
2023/05/29 03:24:53;;;;;;;;;;;;;;;-144.99;87.41;52248.34;5051869;28;19925;-67
2023/05/29 03:27:21;;;;;;;;;;;;;;;-144.99;87.20;52283.00;5047882;28;19925;-67
2023/05/29 03:29:48;;;;;;;;;;;;;;;-144.99;87.20;52260.56;5044246;28;20023;-68
2023/05/29 03:32:14;;;;;;;;;;;;;;;-144.99;87.14;52285.03;5042285;28;21213;-67
2023/05/29 03:34:41;;;;;;;;;;;;;;;-144.99;87.23;52264.66;5044364;28;19925;-68
2023/05/29 03:37:08;;;;;;;;;;;;;;;-144.99;87.35;52248.34;5044600;28;19928;-68
2023/05/29 03:39:35;;;;;;;;;;;;;;;-144.99;87.30;52293.19;5047312;28;20095;-68
2023/05/29 03:42:02;;;;;;;;;;;;;;;-144.99;87.44;52268.72;5043587;28;19929;-69
2023/05/29 03:44:30;;;;;;;;;;;;;;;-144.99;87.26;52289.13;5040634;28;19930;-71
2023/05/29 03:46:57;;;;;;;;;;;;;;;-144.99;87.16;52280.97;5044686;28;20015;-68
2023/05/29 03:49:24;;;;;;;;;;;;;;;-144.99;86.90;52256.50;5053607;28;19928;-68
2023/05/29 03:51:51;;;;;;;;;;;;;;;-144.99;86.97;52262.63;5047848;28;19931;-70
2023/05/29 03:54:18;;;;;;;;;;;;;;;-144.99;87.11;52260.56;5040693;28;19925;-69
2023/05/29 03:56:44;;;;;;;;;;;;;;;-144.99;86.76;52289.13;5044210;28;19932;-68
2023/05/29 03:59:11;;;;;;;;;;;;;;;-144.99;86.90;52297.25;5043870;28;21839;-68
2023/05/29 04:01:39;;;;;;;;;;;;;;;-144.99;86.79;52248.34;5045713;28;19948;-68
2023/05/29 04:04:06;;;;;;;;;;;;;;;-144.99;86.59;52270.78;5047879;28;19964;-67
2023/05/29 04:06:33;;;;;;;;;;;;;;;-144.99;86.42;52236.13;5051875;28;19925;-67
2023/05/29 04:08:59;;;;;;;;;;;;;;;-144.99;86.47;52248.34;5047082;28;19925;-67
2023/05/29 04:11:26;;;;;;;;;;;;;;;-144.99;86.17;52256.50;5049088;28;19933;-67
2023/05/29 04:13:53;;;;;;;;;;;;;;;-144.99;86.30;52248.34;5051818;28;19988;-66
2023/05/29 04:16:19;;;;;;;;;;;;;;;-144.99;86.59;52227.97;5047875;28;19925;-69
2023/05/29 04:18:47;;;;;;;;;;;;;;;-144.99;86.23;52276.88;5049355;28;20011;-67
2023/05/29 04:21:14;;;;;;;;;;;;;;;-144.99;86.32;52250.38;5049159;28;20036;-67
2023/05/29 04:23:41;;;;;;;;;;;;;;;-144.99;86.28;52260.56;5049539;28;19929;-68
2023/05/29 04:26:08;;;;;;;;;;;;;;;-144.99;86.07;52272.81;5052816;28;19935;-67
2023/05/29 04:28:37;;;;;;;;;;;;;;;-144.99;85.93;52232.03;5046615;28;19936;-68
2023/05/29 04:31:04;;;;;;;;;;;;;;;-144.99;85.59;52256.50;5046327;28;19967;-68
2023/05/29 04:33:32;;;;;;;;;;;;;;;-144.99;85.48;52240.19;5045306;28;19929;-71
2023/05/29 04:36:03;;;;;;;;;;;;;;;-144.99;85.46;52287.06;5049256;28;19925;-75
2023/05/29 04:38:30;;;;;;;;;;;;;;;-144.99;85.46;52234.09;5053705;28;20060;-73
2023/05/29 04:40:58;;;;;;;;;;;;;;;-144.99;85.47;52268.72;5051299;28;20401;-70
2023/05/29 04:43:26;;;;;;;;;;;;;;;-144.99;85.50;52268.72;5047389;28;19964;-71
2023/05/29 04:45:53;;;;;;;;;;;;;;;-144.99;83.09;52215.75;5044695;28;19936;-71
2023/05/29 04:48:19;;;;;;;;;;;;;;;-144.99;82.11;52195.34;5045843;28;19924;-71
2023/05/29 04:50:48;;;;;;;;;;;;;;;-144.99;81.53;52244.28;5052403;28;20019;-71
2023/05/29 04:53:16;;;;;;;;;;;;;;;-144.99;83.49;52189.25;5052156;28;19929;-68
2023/05/29 04:55:43;;;;;;;;;;;;;;;-144.99;83.13;52232.03;5051035;28;19936;-68
2023/05/29 04:58:12;;;;;;;;;;;;;;;-144.99;82.00;52207.59;5060500;28;19935;-68
2023/05/29 05:00:38;;;;;;;;;;;;;;;-144.99;80.77;52248.34;5059921;28;19982;-68
2023/05/29 05:03:05;;;;;;;;;;;;;;;-144.99;80.37;52223.88;5067546;28;19931;-69
2023/05/29 05:05:33;;;;;;;;;;;;;;;-144.99;80.04;52203.50;5065605;28;19996;-69
2023/05/29 05:07:59;;;;;;;;;;;;;;;-144.99;79.46;52232.03;5067255;28;19925;-69
2023/05/29 05:10:27;;;;;;;;;;;;;;;-144.99;79.12;52217.78;5062203;28;20023;-71
2023/05/29 05:12:54;;;;;;;;;;;;;;;-144.99;78.94;52256.50;5046537;28;19932;-71
2023/05/29 05:15:21;;;;;;;;;;;;;;;-144.99;78.77;52203.50;5046006;28;19972;-69
2023/05/29 05:17:48;;;;;;;;;;;;;;;-144.99;78.72;52244.28;5045681;28;19967;-69
2023/05/29 05:20:14;;;;;;;;;;;;;;;-144.99;78.75;52244.28;5045696;28;19932;-68
2023/05/29 05:22:41;;;;;;;;;;;;;;;-144.99;78.33;52221.84;5044730;28;20217;-68
2023/05/29 05:25:09;;;;;;;;;;;;;;;-144.99;78.12;52203.50;5044896;28;19955;-69
2023/05/29 05:27:37;;;;;;;;;;;;;;;-144.99;77.73;52227.97;5050303;28;19932;-69
2023/05/29 05:30:04;;;;;;;;;;;;;;;-144.99;78.12;52232.03;5055487;28;20023;-70
2023/05/29 05:32:32;;;;;;;;;;;;;;;-144.99;77.56;52207.59;5058172;28;22002;-69
2023/05/29 05:34:59;;;;;;;;;;;;;;;-144.99;77.04;52236.13;5046533;28;20363;-70
2023/05/29 05:37:26;;;;;;;;;;;;;;;-144.99;77.81;52199.44;5047671;28;19931;-69
2023/05/29 05:39:53;;;;;;;;;;;;;;;-144.99;78.29;52191.28;5051115;28;19964;-70
2023/05/29 05:42:20;;;;;;;;;;;;;;;-144.99;78.80;52219.81;5043318;28;20061;-70
2023/05/29 05:44:48;;;;;;;;;;;;;;;-144.99;78.92;52236.13;5045411;28;19932;-70
2023/05/29 05:47:14;;;;;;;;;;;;;;;-144.99;78.93;52207.59;5042047;28;19955;-68
2023/05/29 05:49:43;;;;;;;;;;;;;;;-144.99;79.28;52236.13;5045823;28;19943;-69
2023/05/29 05:52:10;;;;;;;;;;;;;;;-144.99;79.16;52215.75;5045123;28;20490;-68
2023/05/29 05:54:36;;;;;;;;;;;;;;;-144.99;79.00;52242.22;5043925;28;20431;-68
2023/05/29 05:57:03;;;;;;;;;;;;;;;-144.99;78.94;52219.81;5042349;28;19980;-68
2023/05/29 05:59:30;;;;;;;;;;;;;;;-144.99;78.93;52238.16;5044554;28;20475;-69
2023/05/29 06:01:58;;;;;;;;;;;;;;;-144.99;78.66;52215.75;5043650;28;20353;-69
2023/05/29 06:04:25;;;;;;;;;;;;;;;-144.99;78.23;52199.44;5042191;28;19929;-67
2023/05/29 06:06:51;;;;;;;;;;;;;;;-144.99;77.59;52240.19;5044584;28;19931;-68
2023/05/29 06:09:20;;;;;;;;;;;;;;;-144.99;77.06;52211.66;5043343;28;19924;-68
2023/05/29 06:11:47;;;;;;;;;;;;;;;-144.99;77.24;52203.50;5042034;28;19924;-67
2023/05/29 06:14:14;;;;;;;;;;;;;;;-144.99;77.25;52209.63;5042491;28;20403;-68
2023/05/29 06:16:41;;;;;;;;;;;;;;;-144.99;76.94;52185.16;5042684;28;19929;-68
2023/05/29 06:19:10;;;;;;;;;;;;;;;-144.99;76.54;52232.03;5040935;28;19958;-68
2023/05/29 06:21:37;;;;;;;;;;;;;;;-144.99;76.22;52199.44;5043266;28;20026;-70
2023/05/29 06:24:04;;;;;;;;;;;;;;;-144.99;75.67;52227.97;5042690;28;19935;-70
2023/05/29 06:26:30;;;;;;;;;;;;;;;-144.99;75.85;52223.88;5047360;28;19936;-70
2023/05/29 06:28:57;;;;;;;;;;;;;;;-144.99;75.88;52174.97;5042615;28;19929;-71
2023/05/29 06:31:24;;;;;;;;;;;;;;;-144.99;75.72;52219.81;5044859;28;20397;-70
2023/05/29 06:33:50;;;;;;;;;;;;;;;-144.99;75.23;52209.63;5045601;28;19929;-72
2023/05/29 06:36:18;;;;;;;;;;;;;;;-144.99;74.80;52203.50;5043953;28;19925;-71
2023/05/29 06:38:47;;;;;;;;;;;;;;;-144.99;74.51;52195.34;5044682;28;19929;-67
2023/05/29 06:41:13;;;;;;;;;;;;;;;-144.99;74.55;52191.28;5042148;28;20400;-67
2023/05/29 06:43:40;;;;;;;;;;;;;;;-144.99;74.69;52240.19;5041617;28;20059;-67
2023/05/29 06:46:09;;;;;;;;;;;;;;;-144.99;74.66;52225.94;5041855;28;20420;-68
2023/05/29 06:48:36;;;;;;;;;;;;;;;-144.99;74.50;52179.06;5045730;28;19940;-67
2023/05/29 06:51:08;;;;;;;;;;;;;;;-144.99;74.70;52209.63;5050048;28;20043;-70
2023/05/29 06:53:36;;;;;;;;;;;;;;;-144.99;73.99;52191.28;5050092;28;20024;-70
2023/05/29 06:56:03;;;;;;;;;;;;;;;-144.99;74.09;52215.75;5050128;28;19986;-69
2023/05/29 06:58:30;;;;;;;;;;;;;;;-144.99;73.94;52219.81;5046698;28;19987;-69
2023/05/29 07:00:57;;;;;;;;;;;;;;;-144.99;73.67;52203.50;5049043;28;19924;-72
2023/05/29 07:03:25;;;;;;;;;;;;;;;-144.99;73.16;52189.25;5048657;28;19980;-73
2023/05/29 07:05:51;;;;;;;;;;;;;;;-144.99;73.50;52203.50;5048022;28;20361;-72
2023/05/29 07:08:18;;;;;;;;;;;;;;;-144.99;73.31;52211.66;5047374;28;20327;-66
2023/05/29 07:10:48;;;;;;;;;;;;;;;-144.99;73.79;52199.44;5044100;28;19955;-71
2023/05/29 07:13:16;;;;;;;;;;;;;;;-144.99;73.57;52183.13;5041416;28;19936;-71
2023/05/29 07:15:43;;;;;;;;;;;;;;;-144.99;73.18;52207.59;5041798;28;20018;-72
2023/05/29 07:18:09;;;;;;;;;;;;;;;-144.99;73.33;52187.19;5043001;28;19931;-72
2023/05/29 07:20:37;;;;;;;;;;;;;;;-144.99;72.76;52138.28;5041072;28;19933;-72
2023/05/29 07:23:03;;;;;;;;;;;;;;;-144.99;71.85;52177.00;5041405;28;19951;-72
2023/05/29 07:25:30;;;;;;;;;;;;;;;-144.99;71.67;52168.84;5040416;28;19933;-72
2023/05/29 07:27:58;;;;;;;;;;;;;;;-144.99;70.37;52177.00;5046109;28;19925;-70
2023/05/29 07:30:25;;;;;;;;;;;;;;;-144.99;70.81;52179.06;5047057;28;19925;-74
2023/05/29 07:32:52;;;;;;;;;;;;;;;-144.99;69.64;52113.84;5049129;28;19947;-73
2023/05/29 07:35:19;;;;;;;;;;;;;;;-144.99;70.30;52146.44;5048935;28;19931;-74
2023/05/29 07:37:47;;;;;;;;;;;;;;;-144.99;70.55;52195.34;5048721;28;20019;-74
2023/05/29 07:40:14;;;;;;;;;;;;;;;-144.99;69.73;52177.00;5046637;28;20027;-75
2023/05/29 07:42:41;;;;;;;;;;;;;;;-144.99;70.16;52183.13;5050027;28;19929;-73
2023/05/29 07:45:11;;;;;;;;;;;;;;;-144.99;70.26;52170.91;5051757;28;19933;-73
2023/05/29 07:47:37;;;;;;;;;;;;;;;-144.99;69.66;52191.28;5052459;28;19929;-73
2023/05/29 07:50:05;;;;;;;;;;;;;;;-144.99;69.36;52174.97;5051772;28;20458;-73
2023/05/29 07:52:32;;;;;;;;;;;;;;;-144.99;69.18;52183.13;5052637;28;20005;-73
2023/05/29 07:54:59;;;;;;;;;;;;;;;-144.99;69.36;52174.97;5052077;28;19935;-73
2023/05/29 07:57:25;;;;;;;;;;;;;;;-144.99;69.77;52164.78;5052250;28;20016;-72
2023/05/29 07:59:52;;;;;;;;;;;;;;;-144.99;69.81;52183.13;5048076;28;20384;-72
2023/05/29 08:02:20;;;;;;;;;;;;;;;-144.99;69.16;52166.81;5050638;28;20394;-72
2023/05/29 08:04:47;;;;;;;;;;;;;;;-144.99;68.39;52170.91;5045784;28;19925;-72
2023/05/29 08:07:14;;;;;;;;;;;;;;;-144.99;68.59;52158.66;5047165;28;20394;-72
2023/05/29 08:09:41;;;;;;;;;;;;;;;-144.99;67.57;52146.44;5047253;28;20028;-72
2023/05/29 08:12:07;;;;;;;;;;;;;;;-144.99;68.23;52142.38;5046895;28;19979;-72
2023/05/29 08:14:35;;;;;;;;;;;;;;;-144.99;68.64;52164.78;5051619;28;19931;-72
2023/05/29 08:17:02;;;;;;;;;;;;;;;-144.99;68.60;52152.56;5050285;28;20001;-72
2023/05/29 08:19:30;;;;;;;;;;;;;;;-144.99;68.00;52156.63;5052203;28;19924;-72
2023/05/29 08:21:56;;;;;;;;;;;;;;;-144.99;67.57;52146.44;5051749;28;20408;-72
2023/05/29 08:24:23;;;;;;;;;;;;;;;-144.99;67.30;52154.59;5049813;28;20390;-72
2023/05/29 08:26:50;;;;;;;;;;;;;;;-144.99;67.14;52117.91;5051597;28;20385;-72
2023/05/29 08:29:16;;;;;;;;;;;;;;;-144.99;66.64;52162.75;5051211;28;20385;-72
2023/05/29 08:31:43;;;;;;;;;;;;;;;-144.99;66.84;52130.13;5051536;28;20295;-72
2023/05/29 08:34:10;;;;;;;;;;;;;;;-144.99;67.01;52138.28;5047945;28;19933;-72
2023/05/29 08:36:41;;;;;;;;;;;;;;;-144.99;67.13;52134.22;5049361;28;19925;-73
2023/05/29 08:39:07;;;;;;;;;;;;;;;-144.99;66.86;52158.66;5048081;28;20367;-72
2023/05/29 08:41:38;;;;;;;;;;;;;;;-144.99;66.77;52117.91;5051201;28;19931;-72
2023/05/29 08:44:07;;;;;;;;;;;;;;;-144.99;66.24;52158.66;5049910;28;19925;-73
2023/05/29 08:46:34;;;;;;;;;;;;;;;-144.99;66.23;52152.56;5044953;28;19925;-73
2023/05/29 08:49:02;;;;;;;;;;;;;;;-144.99;66.62;52138.28;5050086;28;20020;-73
2023/05/29 08:51:32;;;;;;;;;;;;;;;-144.99;66.87;52154.59;5053060;28;19925;-73
2023/05/29 08:54:00;;;;;;;;;;;;;;;-144.99;66.29;52130.13;5052267;28;20345;-72
2023/05/29 08:56:27;;;;;;;;;;;;;;;-144.99;65.64;52117.91;5053780;28;19925;-73
2023/05/29 08:58:54;;;;;;;;;;;;;;;-144.99;65.58;52101.59;5051723;28;19925;-73
2023/05/29 09:01:22;;;;;;;;;;;;;;;-144.99;65.36;52150.53;5046174;28;20035;-73
2023/05/29 09:03:49;;;;;;;;;;;;;;;-144.99;65.63;52138.28;5049522;28;19924;-73
2023/05/29 09:06:17;;;;;;;;;;;;;;;-144.99;65.50;52138.28;5050597;28;19935;-74
2023/05/29 09:08:44;;;;;;;;;;;;;;;-144.99;65.89;52128.09;5050783;28;20023;-74
2023/05/29 09:11:12;;;;;;;;;;;;;;;-144.99;66.04;52130.13;5041682;28;19943;-73
2023/05/29 09:13:39;;;;;;;;;;;;;;;-144.99;66.04;52154.59;5044911;28;19928;-73
2023/05/29 09:16:07;;;;;;;;;;;;;;;-144.99;65.38;52164.78;5042235;28;19951;-73
2023/05/29 09:18:33;;;;;;;;;;;;;;;-144.99;65.09;52130.13;5043910;28;19932;-74
2023/05/29 09:21:00;;;;;;;;;;;;;;;-144.99;64.96;52097.53;5046831;28;19925;-73
2023/05/29 09:23:27;;;;;;;;;;;;;;;-144.99;64.66;52126.06;5048530;28;19936;-73
2023/05/29 09:25:54;;;;;;;;;;;;;;;-144.99;64.43;52069.00;5047394;28;19931;-73
2023/05/29 09:28:26;;;;;;;;;;;;;;;-144.99;64.38;52077.16;5045475;28;19972;-73
2023/05/29 09:30:53;;;;;;;;;;;;;;;-144.99;62.87;52089.38;5042955;28;19932;-73
2023/05/29 09:33:20;;;;;;;;;;;;;;;-144.99;62.42;52077.16;5055082;28;19929;-67
2023/05/29 09:35:48;;;;;;;;;;;;;;;-144.99;62.09;52093.44;5050290;28;20345;-67
2023/05/29 09:38:15;;;;;;;;;;;;;;;-144.99;62.00;52064.91;5045626;28;20357;-74
2023/05/29 09:40:45;;;;;;;;;;;;;;;-144.99;62.29;52093.44;5043852;28;19937;-74
2023/05/29 09:43:13;;;;;;;;;;;;;;;-144.99;63.10;52085.31;5047362;28;19929;-74
2023/05/29 09:45:42;;;;;;;;;;;;;;;-144.99;62.31;52105.69;5050516;28;19940;-74
2023/05/29 09:48:12;;;;;;;;;;;;;;;-144.99;62.36;52132.19;5044532;28;20229;-74
2023/05/29 09:50:42;;;;;;;;;;;;;;;-144.99;62.60;52097.53;5047878;28;20428;-74
2023/05/29 09:53:17;;;;;;;;;;;;;;;-144.99;62.54;52069.00;5050600;28;19982;-74
2023/05/29 09:55:44;;;;;;;;;;;;;;;-144.99;62.50;52034.34;5050449;28;19994;-74
2023/05/29 09:58:12;;;;;;;;;;;;;;;-144.99;62.06;52048.63;5045753;28;19983;-74
2023/05/29 10:00:39;;;;;;;;;;;;;;;-144.99;62.30;52075.09;5048500;28;19929;-74
2023/05/29 10:03:07;;;;;;;;;;;;;;;-144.99;61.64;52064.91;5044699;28;19928;-73
2023/05/29 10:05:34;;;;;;;;;;;;;;;-144.99;61.44;52077.16;5039029;28;20315;-74
2023/05/29 10:08:03;;;;;;;;;;;;;;;-144.99;61.26;52046.56;5075524;22;22203;-67
2023/05/29 10:10:30;;;;;;;;;;;;;;;-144.99;60.82;52069.00;5066316;28;19961;-67
2023/05/29 10:12:58;;;;;;;;;;;;;;;-144.99;60.06;52044.53;5061199;28;19925;-69
2023/05/29 10:15:29;;;;;;;;;;;;;;;-144.99;60.36;52073.06;5068636;28;19979;-69
2023/05/29 10:18:00;;;;;;;;;;;;;;;-144.99;60.64;52066.97;5069324;28;19985;-70
2023/05/29 10:20:29;;;;;;;;;;;;;;;-144.99;60.07;52003.78;5065611;28;20357;-68
2023/05/29 10:22:57;;;;;;;;;;;;;;;-144.99;60.23;52040.47;5062713;28;20373;-69
2023/05/29 10:25:25;;;;;;;;;;;;;;;-144.99;60.05;52048.63;5064082;28;19924;-69
2023/05/29 10:27:52;;;;;;;;;;;;;;;-144.99;60.28;52044.53;5068430;28;19924;-68
2023/05/29 10:30:28;;;;;;;;;;;;;;;-144.99;60.26;52038.44;5067903;28;19931;-68
2023/05/29 10:33:04;;;;;;;;;;;;;;;-144.99;60.26;52038.44;5065433;28;19925;-68
2023/05/29 10:35:38;;;;;;;;;;;;;;;-144.99;60.08;52020.09;5063127;28;19931;-68
2023/05/29 10:38:11;;;;;;;;;;;;;;;-144.99;60.07;52024.16;5067608;28;20019;-68
2023/05/29 10:40:38;;;;;;;;;;;;;;;-144.99;59.65;52022.13;5062234;28;20017;-68
2023/05/29 10:43:08;;;;;;;;;;;;;;;-144.99;59.52;52028.22;5066675;28;19931;-68
2023/05/29 10:45:53;;;;;;;;;;;;;;;-144.99;59.53;52020.09;5060328;28;19924;-68
2023/05/29 10:48:38;;;;;;;;;;;;;;;-144.99;59.14;51991.56;5067762;28;19924;-69
2023/05/29 10:51:08;;;;;;;;;;;;;;;-144.99;59.10;51995.63;5061970;28;19928;-67
2023/05/29 10:53:39;;;;;;;;;;;;;;;-144.99;58.58;51995.63;5065766;28;19981;-68
2023/05/29 10:56:09;;;;;;;;;;;;;;;-144.99;58.39;51975.25;5068037;28;20611;-67
2023/05/29 10:58:35;;;;;;;;;;;;;;;-144.99;58.06;51995.63;5067641;28;19930;-68
2023/05/29 11:01:03;;;;;;;;;;;;;;;-144.99;57.80;51995.63;5066868;28;20355;-68
2023/05/29 11:03:31;;;;;;;;;;;;;;;-144.99;57.80;51985.44;5062676;28;20434;-68
2023/05/29 11:05:58;;;;;;;;;;;;;;;-144.99;57.45;51987.47;5068095;28;19936;-68
2023/05/29 11:08:33;;;;;;;;;;;;;;;-144.99;57.81;51977.28;5067466;28;19930;-68
2023/05/29 11:11:00;;;;;;;;;;;;;;;-144.99;58.32;52007.84;5065904;28;19986;-68
2023/05/29 11:13:28;;;;;;;;;;;;;;;-144.99;57.62;51981.38;5064491;28;20240;-68
2023/05/29 11:16:14;;;;;;;;;;;;;;;-144.99;57.67;52003.78;5066974;28;19951;-68
2023/05/29 11:18:45;;;;;;;;;;;;;;;-144.99;57.03;52007.84;5067715;28;20683;-68
2023/05/29 11:21:27;;;;;;;;;;;;;;;-144.99;57.13;51969.13;5066603;28;20388;-68
2023/05/29 11:23:55;;;;;;;;;;;;;;;-144.99;57.10;51987.47;5059291;28;19928;-68
2023/05/29 11:26:23;;;;;;;;;;;;;;;-144.99;57.17;51999.69;5059408;28;19935;-68
2023/05/29 11:28:50;;;;;;;;;;;;;;;-144.99;57.12;52028.22;5064614;28;19931;-68
2023/05/29 11:31:19;;;;;;;;;;;;;;;-144.99;57.66;51987.47;5067937;28;20270;-69
2023/05/29 11:33:48;;;;;;;;;;;;;;;-144.99;57.55;51971.16;5061114;28;19999;-68
2023/05/29 11:36:15;;;;;;;;;;;;;;;-144.99;57.47;51967.09;5067896;28;20023;-68
2023/05/29 11:38:42;;;;;;;;;;;;;;;-144.99;56.83;51963.03;5067610;28;20374;-67
2023/05/29 11:41:10;;;;;;;;;;;;;;;-144.99;56.28;51999.69;5067608;28;19929;-68
2023/05/29 11:43:38;;;;;;;;;;;;;;;-144.99;56.31;51979.31;5064865;28;19928;-68
2023/05/29 11:46:14;;;;;;;;;;;;;;;-144.99;56.06;51954.88;5066923;28;19925;-68
2023/05/29 11:48:45;;;;;;;;;;;;;;;-144.99;55.98;51983.41;5062287;28;19958;-68
2023/05/29 11:51:12;;;;;;;;;;;;;;;-144.99;56.43;51967.09;5064256;28;19936;-68
2023/05/29 11:53:41;;;;;;;;;;;;;;;-144.99;55.71;51991.56;5065608;28;19934;-68
2023/05/29 11:56:08;;;;;;;;;;;;;;;-144.99;56.63;51999.69;5067113;28;19936;-68
2023/05/29 11:58:35;;;;;;;;;;;;;;;-144.99;56.70;51997.66;5066657;28;19935;-68
2023/05/29 12:01:03;;;;;;;;;;;;;;;-144.99;56.96;51987.47;5065464;28;19928;-69
2023/05/29 12:03:30;;;;;;;;;;;;;;;-144.99;56.47;52007.84;5061043;28;19929;-68
2023/05/29 12:05:56;;;;;;;;;;;;;;;-144.99;56.39;51963.03;5058419;28;20300;-69
2023/05/29 12:08:24;;;;;;;;;;;;;;;-144.99;55.76;52003.78;5064668;28;20360;-71
2023/05/29 12:10:51;;;;;;;;;;;;;;;-144.99;56.14;51987.47;5067404;28;19924;-70
2023/05/29 12:13:19;;;;;;;;;;;;;;;-144.99;55.95;52016.00;5066245;28;20312;-69
2023/05/29 12:15:46;;;;;;;;;;;;;;;-144.99;56.02;51995.63;5064736;28;20086;-69
2023/05/29 12:18:15;;;;;;;;;;;;;;;-144.99;56.25;52003.78;5064589;28;19955;-69
2023/05/29 12:20:42;;;;;;;;;;;;;;;-144.99;56.20;52009.91;5063542;28;19925;-69
2023/05/29 12:23:08;;;;;;;;;;;;;;;-144.99;56.21;52018.03;5062407;28;19928;-69
2023/05/29 12:25:37;;;;;;;;;;;;;;;-144.99;55.96;52024.16;5065111;28;20023;-69
2023/05/29 12:28:05;;;;;;;;;;;;;;;-144.99;56.01;52005.81;5068450;28;19975;-69
2023/05/29 12:30:31;;;;;;;;;;;;;;;-144.99;56.38;52028.22;5070475;28;19925;-68